Killeen-Fort Hood Regional, TX

7:51 PM CST on February 12, 2016 (GMT -0600)
Fort Hood | | Change Station
CLOSE
Current Station
Airport
Location: Fort Hood,
Elevation: 1014 ft
Nearby Weather Stations

Elev 1014 ft 31.07 °N, 97.83 °W | Updated 53 minutes ago

Clear
Clear
62 °F
Feels Like 62 °F
N
10
Wind Variable Wind from NE

Today
High -- | Low -- °F
--% Chance of Precip.
Yesterday
High -- | Low -- °F
Precip. -- in
Pressure 30.26 in
Visibility 10.0 miles
Clouds Clear
Dew Point 36 °F
Humidity 38%
Rainfall 0.00 in
Snow Depth Not available.
7:15 AM 6:16 PM
Waxing Crescent, 25% visible
METAR KGRK 130058Z AUTO 04009KT 10SM CLR 17/02 A3026 RMK AO2 SLP245 T01650021
Pressure 30.26 in
Visibility 10.0 miles
Clouds Clear
Dew Point 36 °F
Humidity 38%
Rainfall 0.00 in
Snow Depth Not available.
7:15 AM 6:16 PM
Waxing Crescent, 25% visible
METAR KGRK 130058Z AUTO 04009KT 10SM CLR 17/02 A3026 RMK AO2 SLP245 T01650021

10-Day Weather Forecast

Almanac

Astronomy

Feb. 12, 2016 Rise Set
Actual Time
Civil Twilight
Nautical Twilight
Astronomical Twilight
Moon
Length of Visible Light
Length of Day
Tomorrow will be .
, % of the Moon is Illuminated

Today's Extremes

State Highs State Lows

Community

WunderPhotos

Upload Photos

1,892,459 photos uploaded!

WunderBlog® & News

Nearby

Air Quality

  Air Quality AQ Index Pollutant
Not available.

Snow Depth

Station Depth Elevation

Earthquake Activity

City Distance Mag. Time & Date
Minimum magnitude displayed is 2.5.

Coastal Water Temperatures

Place Temperature

Stations

Nearby Weather Stations

Station Location Temp. Windchill Dew Point Humidity Wind Precip. Elev Updated Type
                   

Watches & Warnings

There are currently no watches in effect.